Flat, Alaska
Current Conditions -  °F | °C
As of 4:56 PM on Friday 28 Nov 2014 (Local Time) from PFWS Reporting Station
Unknown Precip Unknown Precip  
Wind Chill: 34°   Ceiling: 4500
Heat Index: 34°   Visibility: 10mi
Dew Point: 33°   Wind: 3mph
Humidity: 96%   Direction: 140°SE
Pressure: 30.05"   Gusts: NA
Location:  58.46°N, 157.48°W
Report Text: PFWS 290156Z AUTO 14003KT 10SM UP FEW025 SCT030 OVC045 01/01 A3005 RMK AO2 RAE47UPB47 SLP183 P0001 T00110006 FZRANO
Loading
Personal Weather Stations






























Interactive Weather Map New forecast layout! Learn more

10-Day Weather Forecast

Advertisements
Track Severe Weather on mobile